sensor_id;sensor_type;location;lat;lon;timestamp;pressure;altitude;pressure_sealevel;temperature;humidity
18533;BME280;9396;51.510;11.934;2022-08-19T00:00:50;99853.88;;;21.00;100.00
18533;BME280;9396;51.510;11.934;2022-08-19T00:03:17;99850.72;;;21.03;100.00
18533;BME280;9396;51.510;11.934;2022-08-19T00:05:44;99858.59;;;21.04;100.00
18533;BME280;9396;51.510;11.934;2022-08-19T00:08:10;99853.88;;;21.00;100.00
18533;BME280;9396;51.510;11.934;2022-08-19T00:10:38;99850.81;;;20.96;100.00
18533;BME280;9396;51.510;11.934;2022-08-19T00:13:05;99851.16;;;21.11;100.00
18533;BME280;9396;51.510;11.934;2022-08-19T00:15:32;99848.13;;;21.19;100.00
18533;BME280;9396;51.510;11.934;2022-08-19T00:17:59;99862.59;;;21.13;100.00
18533;BME280;9396;51.510;11.934;2022-08-19T00:20:26;99854.00;;;21.16;100.00
18533;BME280;9396;51.510;11.934;2022-08-19T00:22:52;99855.78;;;21.11;100.00
18533;BME280;9396;51.510;11.934;2022-08-19T00:25:19;99859.75;;;21.08;100.00
18533;BME280;9396;51.510;11.934;2022-08-19T00:27:47;99861.75;;;21.13;100.00
18533;BME280;9396;51.510;11.934;2022-08-19T00:30:15;99862.94;;;21.17;100.00
18533;BME280;9396;51.510;11.934;2022-08-19T00:32:42;99870.69;;;21.13;100.00
18533;BME280;9396;51.510;11.934;2022-08-19T00:35:09;99872.84;;;21.23;100.00
18533;BME280;9396;51.510;11.934;2022-08-19T00:37:37;99874.22;;;21.02;100.00
18533;BME280;9396;51.510;11.934;2022-08-19T00:40:06;99881.75;;;21.12;100.00
18533;BME280;9396;51.510;11.934;2022-08-19T00:42:32;99890.34;;;21.09;100.00
18533;BME280;9396;51.510;11.934;2022-08-19T00:45:02;99897.38;;;20.98;100.00
18533;BME280;9396;51.510;11.934;2022-08-19T00:47:34;99899.81;;;20.88;100.00
18533;BME280;9396;51.510;11.934;2022-08-19T00:50:01;99902.78;;;20.98;100.00
18533;BME280;9396;51.510;11.934;2022-08-19T00:52:33;99896.00;;;21.07;100.00
18533;BME280;9396;51.510;11.934;2022-08-19T00:55:02;99901.97;;;21.09;100.00
18533;BME280;9396;51.510;11.934;2022-08-19T00:57:32;99901.06;;;21.04;100.00
18533;BME280;9396;51.510;11.934;2022-08-19T01:00:05;99898.34;;;21.04;100.00
18533;BME280;9396;51.510;11.934;2022-08-19T01:02:33;99896.22;;;21.06;100.00
18533;BME280;9396;51.510;11.934;2022-08-19T01:05:02;99902.78;;;20.98;100.00
18533;BME280;9396;51.510;11.934;2022-08-19T01:07:31;99902.47;;;21.06;100.00
18533;BME280;9396;51.510;11.934;2022-08-19T01:09:57;99899.28;;;21.09;100.00
18533;BME280;9396;51.510;11.934;2022-08-19T01:12:24;99887.59;;;20.97;100.00
18533;BME280;9396;51.510;11.934;2022-08-19T01:14:51;99897.41;;;21.10;100.00
18533;BME280;9396;51.510;11.934;2022-08-19T01:17:20;99897.28;;;21.05;100.00
18533;BME280;9396;51.510;11.934;2022-08-19T01:19:48;99896.13;;;21.12;100.00
18533;BME280;9396;51.510;11.934;2022-08-19T01:22:19;99901.25;;;21.02;100.00
18533;BME280;9396;51.510;11.934;2022-08-19T01:24:49;99894.09;;;21.08;100.00
18533;BME280;9396;51.510;11.934;2022-08-19T01:27:16;99889.16;;;21.05;100.00
18533;BME280;9396;51.510;11.934;2022-08-19T01:29:44;99886.09;;;21.01;100.00
18533;BME280;9396;51.510;11.934;2022-08-19T01:32:13;99881.34;;;20.97;100.00
18533;BME280;9396;51.510;11.934;2022-08-19T01:34:40;99876.72;;;21.04;100.00
18533;BME280;9396;51.510;11.934;2022-08-19T01:37:08;99872.94;;;21.05;100.00
18533;BME280;9396;51.510;11.934;2022-08-19T01:39:37;99864.09;;;21.09;100.00
18533;BME280;9396;51.510;11.934;2022-08-19T01:42:07;99864.22;;;21.03;100.00
18533;BME280;9396;51.510;11.934;2022-08-19T01:44:36;99848.09;;;20.96;100.00
18533;BME280;9396;51.510;11.934;2022-08-19T01:47:04;99838.91;;;20.97;100.00
18533;BME280;9396;51.510;11.934;2022-08-19T01:49:31;99825.41;;;20.86;100.00
18533;BME280;9396;51.510;11.934;2022-08-19T01:51:59;99813.41;;;20.82;100.00
18533;BME280;9396;51.510;11.934;2022-08-19T01:54:26;99802.34;;;20.72;100.00
18533;BME280;9396;51.510;11.934;2022-08-19T01:56:57;99801.97;;;20.57;100.00
18533;BME280;9396;51.510;11.934;2022-08-19T01:59:27;99805.50;;;20.57;100.00
18533;BME280;9396;51.510;11.934;2022-08-19T02:01:54;99814.28;;;20.53;100.00
18533;BME280;9396;51.510;11.934;2022-08-19T02:04:21;99811.94;;;20.45;100.00
18533;BME280;9396;51.510;11.934;2022-08-19T02:06:48;99809.84;;;20.47;100.00
18533;BME280;9396;51.510;11.934;2022-08-19T02:09:15;99817.47;;;20.50;100.00
18533;BME280;9396;51.510;11.934;2022-08-19T02:11:42;99811.09;;;20.44;100.00
18533;BME280;9396;51.510;11.934;2022-08-19T02:14:09;99818.19;;;20.45;100.00
18533;BME280;9396;51.510;11.934;2022-08-19T02:16:37;99815.91;;;20.42;100.00
18533;BME280;9396;51.510;11.934;2022-08-19T02:19:05;99813.38;;;20.59;100.00
18533;BME280;9396;51.510;11.934;2022-08-19T02:21:32;99809.47;;;20.55;100.00
18533;BME280;9396;51.510;11.934;2022-08-19T02:23:59;99813.59;;;20.57;100.00
18533;BME280;9396;51.510;11.934;2022-08-19T02:26:26;99812.19;;;20.55;100.00
18533;BME280;9396;51.510;11.934;2022-08-19T02:28:53;99813.38;;;20.59;100.00
18533;BME280;9396;51.510;11.934;2022-08-19T02:31:22;99805.94;;;20.54;100.00
18533;BME280;9396;51.510;11.934;2022-08-19T02:33:51;99801.63;;;20.65;100.00
18533;BME280;9396;51.510;11.934;2022-08-19T02:36:18;99798.22;;;20.69;100.00
18533;BME280;9396;51.510;11.934;2022-08-19T02:38:45;99788.34;;;20.75;100.00
18533;BME280;9396;51.510;11.934;2022-08-19T02:41:14;99782.00;;;20.69;100.00
18533;BME280;9396;51.510;11.934;2022-08-19T02:43:41;99786.47;;;20.75;100.00
18533;BME280;9396;51.510;11.934;2022-08-19T02:46:13;99782.72;;;20.76;100.00
18533;BME280;9396;51.510;11.934;2022-08-19T02:48:41;99785.28;;;20.71;100.00
18533;BME280;9396;51.510;11.934;2022-08-19T02:51:15;99727.94;;;20.46;100.00
18533;BME280;9396;51.510;11.934;2022-08-19T02:53:42;99775.16;;;20.67;100.00
18533;BME280;9396;51.510;11.934;2022-08-19T02:56:09;99775.41;;;20.65;100.00
18533;BME280;9396;51.510;11.934;2022-08-19T02:58:36;99776.59;;;20.69;100.00
18533;BME280;9396;51.510;11.934;2022-08-19T03:01:03;99772.38;;;20.73;100.00
18533;BME280;9396;51.510;11.934;2022-08-19T03:03:30;99778.94;;;20.77;100.00
18533;BME280;9396;51.510;11.934;2022-08-19T03:06:10;99780.72;;;20.72;100.00
18533;BME280;9396;51.510;11.934;2022-08-19T03:08:39;99790.22;;;20.63;100.00
18533;BME280;9396;51.510;11.934;2022-08-19T03:11:06;99797.16;;;20.59;100.00
18533;BME280;9396;51.510;11.934;2022-08-19T03:13:33;99793.19;;;20.61;100.00
18533;BME280;9396;51.510;11.934;2022-08-19T03:15:59;99797.16;;;20.59;100.00
18533;BME280;9396;51.510;11.934;2022-08-19T03:18:26;99787.53;;;20.63;100.00
18533;BME280;9396;51.510;11.934;2022-08-19T03:20:53;99802.00;;;20.68;100.00
18533;BME280;9396;51.510;11.934;2022-08-19T03:23:22;99814.41;;;20.46;100.00
18533;BME280;9396;51.510;11.934;2022-08-19T03:25:52;99826.41;;;20.50;100.00
18533;BME280;9396;51.510;11.934;2022-08-19T03:28:20;99836.19;;;20.63;100.00
18533;BME280;9396;51.510;11.934;2022-08-19T03:30:57;99836.78;;;20.65;100.00
18533;BME280;9396;51.510;11.934;2022-08-19T03:33:25;99826.28;;;20.57;100.00
18533;BME280;9396;51.510;11.934;2022-08-19T03:36:07;99836.06;;;20.69;100.00
18533;BME280;9396;51.510;11.934;2022-08-19T03:38:38;99839.00;;;20.79;100.00
18533;BME280;9396;51.510;11.934;2022-08-19T03:41:06;99845.72;;;20.77;100.00
18533;BME280;9396;51.510;11.934;2022-08-19T03:43:35;99851.81;;;20.72;100.00
18533;BME280;9396;51.510;11.934;2022-08-19T03:46:05;99865.81;;;20.69;100.00
18533;BME280;9396;51.510;11.934;2022-08-19T03:48:33;99882.97;;;20.75;100.00
18533;BME280;9396;51.510;11.934;2022-08-19T03:51:00;99887.47;;;20.81;100.00
18533;BME280;9396;51.510;11.934;2022-08-19T03:53:29;99888.28;;;20.81;100.00
18533;BME280;9396;51.510;11.934;2022-08-19T03:55:58;99893.25;;;20.84;100.00
18533;BME280;9396;51.510;11.934;2022-08-19T03:58:25;99899.56;;;20.90;100.00
18533;BME280;9396;51.510;11.934;2022-08-19T04:00:52;99899.00;;;20.88;100.00
18533;BME280;9396;51.510;11.934;2022-08-19T04:03:19;99900.88;;;20.87;100.00
18533;BME280;9396;51.510;11.934;2022-08-19T04:05:46;99910.53;;;20.95;100.00
18533;BME280;9396;51.510;11.934;2022-08-19T04:08:13;99915.13;;;20.94;100.00
18533;BME280;9396;51.510;11.934;2022-08-19T04:10:43;99915.13;;;20.94;100.00
18533;BME280;9396;51.510;11.934;2022-08-19T04:13:11;99908.63;;;20.95;100.00
18533;BME280;9396;51.510;11.934;2022-08-19T04:15:39;99903.94;;;20.91;100.00
18533;BME280;9396;51.510;11.934;2022-08-19T04:18:07;99900.16;;;20.92;100.00
18533;BME280;9396;51.510;11.934;2022-08-19T04:20:39;99909.94;;;20.93;100.00
18533;BME280;9396;51.510;11.934;2022-08-19T04:23:06;99903.81;;;20.97;100.00
18533;BME280;9396;51.510;11.934;2022-08-19T04:25:36;99906.16;;;20.94;100.00
18533;BME280;9396;51.510;11.934;2022-08-19T04:28:03;99912.38;;;20.83;100.00
18533;BME280;9396;51.510;11.934;2022-08-19T04:30:37;99923.19;;;20.83;100.00
18533;BME280;9396;51.510;11.934;2022-08-19T04:33:04;99929.41;;;20.72;100.00
18533;BME280;9396;51.510;11.934;2022-08-19T04:35:35;99932.31;;;20.70;100.00
18533;BME280;9396;51.510;11.934;2022-08-19T04:38:01;99914.81;;;20.61;100.00
18533;BME280;9396;51.510;11.934;2022-08-19T04:40:28;99907.28;;;20.63;100.00
18533;BME280;9396;51.510;11.934;2022-08-19T04:43:12;99900.69;;;20.59;100.00
18533;BME280;9396;51.510;11.934;2022-08-19T04:45:42;99896.31;;;20.58;100.00
18533;BME280;9396;51.510;11.934;2022-08-19T04:48:09;99889.53;;;20.56;100.00
18533;BME280;9396;51.510;11.934;2022-08-19T04:50:36;99895.00;;;20.49;100.00
18533;BME280;9396;51.510;11.934;2022-08-19T04:53:02;99893.25;;;20.55;100.00
18533;BME280;9396;51.510;11.934;2022-08-19T04:55:29;99884.00;;;20.62;100.00
18533;BME280;9396;51.510;11.934;2022-08-19T04:57:56;99892.72;;;20.64;100.00
18533;BME280;9396;51.510;11.934;2022-08-19T05:00:23;99888.34;;;20.63;100.00
18533;BME280;9396;51.510;11.934;2022-08-19T05:02:51;99899.41;;;20.62;100.00
18533;BME280;9396;51.510;11.934;2022-08-19T05:05:18;99890.00;;;20.64;100.00
18533;BME280;9396;51.510;11.934;2022-08-19T05:07:45;99892.47;;;20.66;100.00
18533;BME280;9396;51.510;11.934;2022-08-19T05:10:12;99883.53;;;20.65;100.00
18533;BME280;9396;51.510;11.934;2022-08-19T05:12:39;99891.06;;;20.63;100.00
18533;BME280;9396;51.510;11.934;2022-08-19T05:15:06;99889.06;;;20.59;100.00
18533;BME280;9396;51.510;11.934;2022-08-19T05:17:34;99908.47;;;20.67;100.00
18533;BME280;9396;51.510;11.934;2022-08-19T05:20:03;99915.53;;;20.68;100.00
18533;BME280;9396;51.510;11.934;2022-08-19T05:22:47;99872.94;;;20.52;100.00
18533;BME280;9396;51.510;11.934;2022-08-19T05:25:16;99924.25;;;20.82;100.00
18533;BME280;9396;51.510;11.934;2022-08-19T05:27:44;99914.81;;;20.61;100.00
18533;BME280;9396;51.510;11.934;2022-08-19T05:30:11;99916.34;;;20.69;100.00
18533;BME280;9396;51.510;11.934;2022-08-19T05:32:38;99918.91;;;20.64;100.00
18533;BME280;9396;51.510;11.934;2022-08-19T05:35:08;99913.28;;;20.65;100.00
18533;BME280;9396;51.510;11.934;2022-08-19T05:37:34;99916.81;;;20.66;100.00
18533;BME280;9396;51.510;11.934;2022-08-19T05:40:02;99907.78;;;20.72;100.00
18533;BME280;9396;51.510;11.934;2022-08-19T05:42:29;99908.22;;;20.57;100.00
18533;BME280;9396;51.510;11.934;2022-08-19T05:44:55;99907.91;;;20.47;100.00
18533;BME280;9396;51.510;11.934;2022-08-19T05:47:22;99909.22;;;20.45;100.00
18533;BME280;9396;51.510;11.934;2022-08-19T05:49:49;99913.94;;;20.49;100.00
18533;BME280;9396;51.510;11.934;2022-08-19T05:52:18;99912.88;;;20.50;100.00
18533;BME280;9396;51.510;11.934;2022-08-19T05:54:46;99913.69;;;20.51;100.00
18533;BME280;9396;51.510;11.934;2022-08-19T05:57:14;99917.81;;;20.53;100.00
18533;BME280;9396;51.510;11.934;2022-08-19T05:59:41;99934.50;;;20.50;100.00
18533;BME280;9396;51.510;11.934;2022-08-19T06:02:08;99928.38;;;20.43;100.00
18533;BME280;9396;51.510;11.934;2022-08-19T06:04:35;99921.66;;;20.46;100.00
18533;BME280;9396;51.510;11.934;2022-08-19T06:07:02;99932.47;;;20.46;100.00
18533;BME280;9396;51.510;11.934;2022-08-19T06:09:31;99927.66;;;20.48;100.00
18533;BME280;9396;51.510;11.934;2022-08-19T06:11:58;99935.88;;;20.41;100.00
18533;BME280;9396;51.510;11.934;2022-08-19T06:14:31;99952.09;;;20.41;100.00
18533;BME280;9396;51.510;11.934;2022-08-19T06:16:59;99949.47;;;20.35;100.00
18533;BME280;9396;51.510;11.934;2022-08-19T06:19:28;99950.59;;;20.45;100.00
18533;BME280;9396;51.510;11.934;2022-08-19T06:21:56;99946.69;;;20.41;100.00
18533;BME280;9396;51.510;11.934;2022-08-19T06:24:25;99941.59;;;20.33;100.00
18533;BME280;9396;51.510;11.934;2022-08-19T06:26:55;99947.44;;;20.30;100.00
18533;BME280;9396;51.510;11.934;2022-08-19T06:29:24;99950.00;;;20.25;100.00
18533;BME280;9396;51.510;11.934;2022-08-19T06:31:53;99953.69;;;20.31;100.00
18533;BME280;9396;51.510;11.934;2022-08-19T06:34:21;99957.19;;;20.31;100.00
18533;BME280;9396;51.510;11.934;2022-08-19T06:36:50;99958.09;;;20.43;100.00
18533;BME280;9396;51.510;11.934;2022-08-19T06:39:20;99957.03;;;20.44;100.00
18533;BME280;9396;51.510;11.934;2022-08-19T06:41:48;99965.38;;;20.43;100.00
18533;BME280;9396;51.510;11.934;2022-08-19T06:44:17;99954.94;;;20.46;100.00
18533;BME280;9396;51.510;11.934;2022-08-19T06:46:44;99956.94;;;20.51;100.00
18533;BME280;9396;51.510;11.934;2022-08-19T06:49:12;99965.75;;;20.46;100.00
18533;BME280;9396;51.510;11.934;2022-08-19T06:51:40;99892.03;;;20.09;100.00
18533;BME280;9396;51.510;11.934;2022-08-19T06:54:07;99978.63;;;20.62;100.00
18533;BME280;9396;51.510;11.934;2022-08-19T06:56:34;99985.47;;;20.65;100.00
18533;BME280;9396;51.510;11.934;2022-08-19T06:59:04;99934.31;;;20.34;100.00
18533;BME280;9396;51.510;11.934;2022-08-19T07:01:35;100002.47;;;20.65;100.00
18533;BME280;9396;51.510;11.934;2022-08-19T07:04:03;100015.75;;;20.67;100.00
18533;BME280;9396;51.510;11.934;2022-08-19T07:06:30;100007.97;;;20.59;100.00
18533;BME280;9396;51.510;11.934;2022-08-19T07:08:57;100016.84;;;20.66;100.00
18533;BME280;9396;51.510;11.934;2022-08-19T07:11:24;100020.44;;;20.60;100.00
18533;BME280;9396;51.510;11.934;2022-08-19T07:13:51;100032.53;;;20.57;100.00
18533;BME280;9396;51.510;11.934;2022-08-19T07:16:19;100032.16;;;20.72;100.00
18533;BME280;9396;51.510;11.934;2022-08-19T07:18:48;100026.94;;;20.70;100.00
18533;BME280;9396;51.510;11.934;2022-08-19T07:21:16;100038.13;;;20.74;100.00
18533;BME280;9396;51.510;11.934;2022-08-19T07:23:44;100042.38;;;20.70;100.00
18533;BME280;9396;51.510;11.934;2022-08-19T07:26:15;100043.34;;;20.75;100.00
18533;BME280;9396;51.510;11.934;2022-08-19T07:28:42;100041.44;;;20.76;100.00
18533;BME280;9396;51.510;11.934;2022-08-19T07:31:12;100049.25;;;20.84;100.00
18533;BME280;9396;51.510;11.934;2022-08-19T07:33:39;100057.84;;;20.92;100.00
18533;BME280;9396;51.510;11.934;2022-08-19T07:36:12;100068.31;;;20.89;100.00
18533;BME280;9396;51.510;11.934;2022-08-19T07:38:40;100075.19;;;20.73;100.00
18533;BME280;9396;51.510;11.934;2022-08-19T07:41:09;100073.50;;;20.72;100.00
18533;BME280;9396;51.510;11.934;2022-08-19T07:43:37;100072.16;;;20.63;100.00
18533;BME280;9396;51.510;11.934;2022-08-19T07:46:03;100073.59;;;20.66;100.00
18533;BME280;9396;51.510;11.934;2022-08-19T07:48:30;100076.81;;;20.56;100.00
18533;BME280;9396;51.510;11.934;2022-08-19T07:50:59;100079.25;;;20.46;100.00
18533;BME280;9396;51.510;11.934;2022-08-19T07:53:29;100088.47;;;20.57;100.00
18533;BME280;9396;51.510;11.934;2022-08-19T07:55:56;100078.50;;;20.57;100.00
18533;BME280;9396;51.510;11.934;2022-08-19T07:58:27;100090.06;;;20.64;100.00
18533;BME280;9396;51.510;11.934;2022-08-19T08:00:53;100090.19;;;20.69;100.00
18533;BME280;9396;51.510;11.934;2022-08-19T08:03:21;100087.81;;;20.61;100.00
18533;BME280;9396;51.510;11.934;2022-08-19T08:06:08;100091.56;;;20.60;100.00
18533;BME280;9396;51.510;11.934;2022-08-19T08:08:55;100091.09;;;20.63;100.00
18533;BME280;9396;51.510;11.934;2022-08-19T08:11:49;100094.19;;;20.49;100.00
18533;BME280;9396;51.510;11.934;2022-08-19T08:14:19;100094.03;;;20.44;100.00
18533;BME280;9396;51.510;11.934;2022-08-19T08:16:48;100094.13;;;20.55;100.00
18533;BME280;9396;51.510;11.934;2022-08-19T08:19:17;100096.50;;;20.63;100.00
18533;BME280;9396;51.510;11.934;2022-08-19T08:21:44;100098.31;;;20.69;100.00
18533;BME280;9396;51.510;11.934;2022-08-19T08:24:12;100053.09;;;20.40;100.00
18533;BME280;9396;51.510;11.934;2022-08-19T08:26:39;100106.03;;;20.66;100.00
18533;BME280;9396;51.510;11.934;2022-08-19T08:29:07;100108.13;;;20.64;100.00
18533;BME280;9396;51.510;11.934;2022-08-19T08:31:37;100111.69;;;20.64;100.00
18533;BME280;9396;51.510;11.934;2022-08-19T08:34:04;100103.25;;;20.54;100.00
18533;BME280;9396;51.510;11.934;2022-08-19T08:36:30;100099.38;;;20.50;100.00
18533;BME280;9396;51.510;11.934;2022-08-19T08:38:58;100111.53;;;20.59;100.00
18533;BME280;9396;51.510;11.934;2022-08-19T08:41:32;100097.19;;;20.59;100.00
18533;BME280;9396;51.510;11.934;2022-08-19T08:44:01;100107.09;;;20.65;100.00
18533;BME280;9396;51.510;11.934;2022-08-19T08:46:35;100118.28;;;20.50;100.00
18533;BME280;9396;51.510;11.934;2022-08-19T08:49:11;100112.44;;;20.53;100.00
18533;BME280;9396;51.510;11.934;2022-08-19T08:51:48;100111.38;;;20.54;100.00
18533;BME280;9396;51.510;11.934;2022-08-19T08:54:20;100113.09;;;20.67;100.00
18533;BME280;9396;51.510;11.934;2022-08-19T08:56:49;100121.50;;;20.77;100.00
18533;BME280;9396;51.510;11.934;2022-08-19T08:59:21;100122.91;;;20.79;100.00
18533;BME280;9396;51.510;11.934;2022-08-19T09:01:48;100121.66;;;20.64;100.00
18533;BME280;9396;51.510;11.934;2022-08-19T09:04:15;100126.22;;;20.63;100.00
18533;BME280;9396;51.510;11.934;2022-08-19T09:06:50;100133.75;;;20.61;100.00
18533;BME280;9396;51.510;11.934;2022-08-19T09:09:21;100131.56;;;20.52;100.00
18533;BME280;9396;51.510;11.934;2022-08-19T09:12:04;100131.19;;;20.48;100.00
18533;BME280;9396;51.510;11.934;2022-08-19T09:14:37;100135.91;;;20.53;100.00
18533;BME280;9396;51.510;11.934;2022-08-19T09:17:07;100131.22;;;20.66;100.00
18533;BME280;9396;51.510;11.934;2022-08-19T09:19:34;100139.38;;;20.78;100.00
18533;BME280;9396;51.510;11.934;2022-08-19T09:22:01;100144.56;;;20.79;100.00
18533;BME280;9396;51.510;11.934;2022-08-19T09:24:28;100140.34;;;20.83;100.00
18533;BME280;9396;51.510;11.934;2022-08-19T09:26:54;100141.09;;;20.72;100.00
18533;BME280;9396;51.510;11.934;2022-08-19T09:29:22;100142.81;;;20.67;100.00
18533;BME280;9396;51.510;11.934;2022-08-19T09:31:49;100138.72;;;20.64;100.00
18533;BME280;9396;51.510;11.934;2022-08-19T09:34:16;100145.63;;;20.60;100.00
18533;BME280;9396;51.510;11.934;2022-08-19T09:36:45;100139.00;;;20.56;100.00
18533;BME280;9396;51.510;11.934;2022-08-19T09:39:11;100137.72;;;20.59;100.00
18533;BME280;9396;51.510;11.934;2022-08-19T09:41:38;100134.81;;;20.60;100.00
18533;BME280;9396;51.510;11.934;2022-08-19T09:44:04;100143.22;;;20.52;100.00
18533;BME280;9396;51.510;11.934;2022-08-19T09:46:33;100138.09;;;20.62;100.00
18533;BME280;9396;51.510;11.934;2022-08-19T09:49:01;100137.22;;;20.50;100.00
18533;BME280;9396;51.510;11.934;2022-08-19T09:51:29;100134.13;;;20.47;100.00
18533;BME280;9396;51.510;11.934;2022-08-19T09:54:00;100144.22;;;20.33;100.00
18533;BME280;9396;51.510;11.934;2022-08-19T09:56:27;100149.84;;;20.32;100.00
18533;BME280;9396;51.510;11.934;2022-08-19T09:58:54;100075.19;;;19.94;100.00
18533;BME280;9396;51.510;11.934;2022-08-19T10:01:23;100141.97;;;20.30;100.00
18533;BME280;9396;51.510;11.934;2022-08-19T10:03:53;100129.72;;;20.27;100.00
18533;BME280;9396;51.510;11.934;2022-08-19T10:06:20;100126.53;;;20.37;100.00
18533;BME280;9396;51.510;11.934;2022-08-19T10:08:48;100120.91;;;20.39;100.00
18533;BME280;9396;51.510;11.934;2022-08-19T10:11:15;100125.19;;;20.46;100.00
18533;BME280;9396;51.510;11.934;2022-08-19T10:13:43;100050.75;;;20.07;100.00
18533;BME280;9396;51.510;11.934;2022-08-19T10:16:13;100120.53;;;20.53;100.00
18533;BME280;9396;51.510;11.934;2022-08-19T10:18:41;100112.88;;;20.50;100.00
18533;BME280;9396;51.510;11.934;2022-08-19T10:21:12;100111.00;;;20.69;100.00
18533;BME280;9396;51.510;11.934;2022-08-19T10:23:41;100117.69;;;20.84;100.00
18533;BME280;9396;51.510;11.934;2022-08-19T10:26:11;100122.78;;;20.92;100.00
18533;BME280;9396;51.510;11.934;2022-08-19T10:28:38;100120.06;;;20.92;100.00
18533;BME280;9396;51.510;11.934;2022-08-19T10:31:06;100119.16;;;20.98;100.00
18533;BME280;9396;51.510;11.934;2022-08-19T10:33:34;100123.06;;;21.02;100.00
18533;BME280;9396;51.510;11.934;2022-08-19T10:36:02;100126.97;;;21.06;100.00
18533;BME280;9396;51.510;11.934;2022-08-19T10:38:30;100141.56;;;21.05;100.00
18533;BME280;9396;51.510;11.934;2022-08-19T10:40:57;100139.00;;;21.10;100.00
18533;BME280;9396;51.510;11.934;2022-08-19T10:43:23;100129.38;;;21.14;99.14
18533;BME280;9396;51.510;11.934;2022-08-19T10:45:54;100127.06;;;21.29;99.11
18533;BME280;9396;51.510;11.934;2022-08-19T10:48:23;100123.34;;;21.42;99.55
18533;BME280;9396;51.510;11.934;2022-08-19T10:50:50;100117.41;;;21.52;98.36
18533;BME280;9396;51.510;11.934;2022-08-19T10:53:35;100123.44;;;21.77;98.21
18533;BME280;9396;51.510;11.934;2022-08-19T10:56:02;100125.25;;;21.83;96.65
18533;BME280;9396;51.510;11.934;2022-08-19T10:58:47;100124.91;;;21.91;96.58
18533;BME280;9396;51.510;11.934;2022-08-19T11:01:14;100053.03;;;21.54;97.48
18533;BME280;9396;51.510;11.934;2022-08-19T11:03:41;100126.56;;;21.92;96.87
18533;BME280;9396;51.510;11.934;2022-08-19T11:06:08;100119.13;;;21.99;95.96
18533;BME280;9396;51.510;11.934;2022-08-19T11:08:37;100109.38;;;22.09;95.28
18533;BME280;9396;51.510;11.934;2022-08-19T11:11:05;100105.59;;;22.22;95.81
18533;BME280;9396;51.510;11.934;2022-08-19T11:13:33;100102.78;;;22.28;94.61
18533;BME280;9396;51.510;11.934;2022-08-19T11:16:03;100098.50;;;22.32;93.56
18533;BME280;9396;51.510;11.934;2022-08-19T11:18:30;100107.22;;;22.34;94.10
18533;BME280;9396;51.510;11.934;2022-08-19T11:21:05;100034.91;;;22.00;93.41
18533;BME280;9396;51.510;11.934;2022-08-19T11:23:32;100093.78;;;22.40;94.12
18533;BME280;9396;51.510;11.934;2022-08-19T11:26:00;100100.28;;;22.39;93.21
18533;BME280;9396;51.510;11.934;2022-08-19T11:28:27;100108.66;;;22.37;92.83
18533;BME280;9396;51.510;11.934;2022-08-19T11:30:54;100108.91;;;22.36;91.84
18533;BME280;9396;51.510;11.934;2022-08-19T11:33:21;100104.41;;;22.18;93.30
18533;BME280;9396;51.510;11.934;2022-08-19T11:35:47;100110.56;;;22.25;93.55
18533;BME280;9396;51.510;11.934;2022-08-19T11:38:14;100104.75;;;22.33;92.92
18533;BME280;9396;51.510;11.934;2022-08-19T11:40:41;100108.75;;;22.42;93.74
18533;BME280;9396;51.510;11.934;2022-08-19T11:43:09;100109.59;;;22.43;93.53
18533;BME280;9396;51.510;11.934;2022-08-19T11:45:36;100115.97;;;22.48;92.64
18533;BME280;9396;51.510;11.934;2022-08-19T11:48:03;100111.13;;;22.62;94.31
18533;BME280;9396;51.510;11.934;2022-08-19T11:50:29;100117.38;;;22.62;92.23
18533;BME280;9396;51.510;11.934;2022-08-19T11:52:56;100119.00;;;22.75;92.95
18533;BME280;9396;51.510;11.934;2022-08-19T11:55:23;100129.13;;;22.79;91.92
18533;BME280;9396;51.510;11.934;2022-08-19T11:57:50;100124.78;;;22.78;89.55
18533;BME280;9396;51.510;11.934;2022-08-19T12:00:18;100121.81;;;22.80;91.64
18533;BME280;9396;51.510;11.934;2022-08-19T12:02:45;100125.00;;;22.77;90.69
18533;BME280;9396;51.510;11.934;2022-08-19T12:05:12;100117.66;;;22.89;92.81
18533;BME280;9396;51.510;11.934;2022-08-19T12:07:39;100124.03;;;22.94;91.65
18533;BME280;9396;51.510;11.934;2022-08-19T12:10:07;100124.81;;;22.95;91.87
18533;BME280;9396;51.510;11.934;2022-08-19T12:12:34;100127.44;;;22.90;91.95
18533;BME280;9396;51.510;11.934;2022-08-19T12:15:01;100129.31;;;22.89;90.60
18533;BME280;9396;51.510;11.934;2022-08-19T12:17:29;100122.84;;;22.90;89.40
18533;BME280;9396;51.510;11.934;2022-08-19T12:19:56;100131.59;;;22.81;90.93
18533;BME280;9396;51.510;11.934;2022-08-19T12:22:22;100125.13;;;22.70;92.11
18533;BME280;9396;51.510;11.934;2022-08-19T12:24:49;100131.00;;;22.79;92.47
18533;BME280;9396;51.510;11.934;2022-08-19T12:27:18;100133.00;;;22.83;92.85
18533;BME280;9396;51.510;11.934;2022-08-19T12:29:45;100134.19;;;22.87;92.15
18533;BME280;9396;51.510;11.934;2022-08-19T12:32:11;100131.91;;;22.96;90.87
18533;BME280;9396;51.510;11.934;2022-08-19T12:34:40;100123.53;;;22.97;91.89
18533;BME280;9396;51.510;11.934;2022-08-19T12:37:07;100108.19;;;22.91;93.51
18533;BME280;9396;51.510;11.934;2022-08-19T12:39:36;100096.88;;;22.94;92.76
18533;BME280;9396;51.510;11.934;2022-08-19T12:42:04;100088.75;;;22.94;91.38
18533;BME280;9396;51.510;11.934;2022-08-19T12:44:31;100096.75;;;23.01;92.86
18533;BME280;9396;51.510;11.934;2022-08-19T12:46:58;100085.38;;;23.04;92.31
18533;BME280;9396;51.510;11.934;2022-08-19T12:49:25;100083.59;;;23.09;93.16
18533;BME280;9396;51.510;11.934;2022-08-19T12:51:55;100078.41;;;23.08;91.63
18533;BME280;9396;51.510;11.934;2022-08-19T12:54:23;100085.63;;;23.02;91.20